Terminal Aerodrome Forecast
Issued by NWS

Home | Current Version | Previous Version | Text Only | Print | Product List | Glossary On
Versions: 1 2 3 4 5 6 7 8 9 10 11 12 13 14 15 16 17 18 19 20 21
000
FTUS42 KFFC 051944 AAA
TAFRYY
TAF AMD
KRYY 051944Z 0520/0618 26008KT P6SM VCSH SCT025 BKN040
      TEMPO 0520/0523 5SM TSRA BKN025CB
     FM052300 22006KT P6SM SCT040 BKN100
     FM060800 24003KT 6SM BR BKN012
     FM061000 25004KT 3SM BR BKN008
     FM061400 27006KT P6SM BKN010
     FM061600 27006KT P6SM BKN040=

USA.gov is the U.S. government's official web portal to all federal, state and local government web resources and services.